Weather at Wuasa Airport

Public forecast

Using degrees Celsius for public forecast. Weather courtesy of forecast.io.

Closest aviation weather report (METAR) to Wuasa Airport

Closest report is Sultan Aji Muhammad Sulaiman Sepinggan International Airport, 205.6 nm (380.8 km) W.

2024/07/17 14:00 (retrieved 23 minutes ago)

WALL 171400Z 28002KT 9000 SCT018 27/24 Q1010 NOSIG

Closest aviation forecast (TAF) to Wuasa Airport

Closest forecast is Andi Jemma Airport, 68.0 nm (126.0 km) S.

2024/07/17 12:00 (retrieved 2 hours ago)

TAF WAFM 171100Z 1712/1724 33003KT 5000 RA SCT016 BKN090 BECMG 1719/1721 00000KT 9000 NSW FEW017